sensor_id;sensor_type;location;lat;lon;timestamp;temperature;humidity
5334;DHT22;2689;50.954;7.116;2023-04-24T00:01:12;12.40;99.90
5334;DHT22;2689;50.954;7.116;2023-04-24T00:03:40;12.30;99.90
5334;DHT22;2689;50.954;7.116;2023-04-24T00:06:07;12.20;99.90
5334;DHT22;2689;50.954;7.116;2023-04-24T00:08:34;12.10;99.90
5334;DHT22;2689;50.954;7.116;2023-04-24T00:11:01;12.20;99.90
5334;DHT22;2689;50.954;7.116;2023-04-24T00:13:28;12.20;99.90
5334;DHT22;2689;50.954;7.116;2023-04-24T00:15:57;12.20;99.90
5334;DHT22;2689;50.954;7.116;2023-04-24T00:18:23;12.10;99.90
5334;DHT22;2689;50.954;7.116;2023-04-24T00:20:50;12.50;99.90
5334;DHT22;2689;50.954;7.116;2023-04-24T00:23:17;12.80;99.90
5334;DHT22;2689;50.954;7.116;2023-04-24T00:25:44;12.20;99.90
5334;DHT22;2689;50.954;7.116;2023-04-24T00:28:11;12.70;99.90
5334;DHT22;2689;50.954;7.116;2023-04-24T00:30:37;12.10;99.90
5334;DHT22;2689;50.954;7.116;2023-04-24T00:33:06;12.20;99.90
5334;DHT22;2689;50.954;7.116;2023-04-24T00:35:32;12.10;99.90
5334;DHT22;2689;50.954;7.116;2023-04-24T00:38:00;11.80;99.90
5334;DHT22;2689;50.954;7.116;2023-04-24T00:40:28;12.10;99.90
5334;DHT22;2689;50.954;7.116;2023-04-24T00:42:55;12.30;99.90
5334;DHT22;2689;50.954;7.116;2023-04-24T00:45:22;12.00;99.90
5334;DHT22;2689;50.954;7.116;2023-04-24T00:47:49;12.30;99.90
5334;DHT22;2689;50.954;7.116;2023-04-24T00:50:18;13.00;99.90
5334;DHT22;2689;50.954;7.116;2023-04-24T00:52:44;12.80;99.90
5334;DHT22;2689;50.954;7.116;2023-04-24T00:55:12;12.50;99.90
5334;DHT22;2689;50.954;7.116;2023-04-24T00:57:38;12.10;99.90
5334;DHT22;2689;50.954;7.116;2023-04-24T01:00:06;12.10;99.90
5334;DHT22;2689;50.954;7.116;2023-04-24T01:02:37;12.10;99.90
5334;DHT22;2689;50.954;7.116;2023-04-24T01:05:06;13.20;99.90
5334;DHT22;2689;50.954;7.116;2023-04-24T01:07:35;12.20;99.90
5334;DHT22;2689;50.954;7.116;2023-04-24T01:10:03;12.50;99.90
5334;DHT22;2689;50.954;7.116;2023-04-24T01:12:30;12.30;99.90
5334;DHT22;2689;50.954;7.116;2023-04-24T01:14:57;13.40;99.90
5334;DHT22;2689;50.954;7.116;2023-04-24T01:17:24;12.20;99.90
5334;DHT22;2689;50.954;7.116;2023-04-24T01:19:51;12.30;99.90
5334;DHT22;2689;50.954;7.116;2023-04-24T01:22:20;13.80;99.90
5334;DHT22;2689;50.954;7.116;2023-04-24T01:24:47;12.60;99.90
5334;DHT22;2689;50.954;7.116;2023-04-24T01:27:14;13.00;99.90
5334;DHT22;2689;50.954;7.116;2023-04-24T01:29:45;12.50;99.90
5334;DHT22;2689;50.954;7.116;2023-04-24T01:32:13;13.00;99.90
5334;DHT22;2689;50.954;7.116;2023-04-24T01:34:40;12.30;99.90
5334;DHT22;2689;50.954;7.116;2023-04-24T01:37:07;13.00;99.90
5334;DHT22;2689;50.954;7.116;2023-04-24T01:39:35;12.20;99.90
5334;DHT22;2689;50.954;7.116;2023-04-24T01:42:02;12.00;99.90
5334;DHT22;2689;50.954;7.116;2023-04-24T01:44:29;12.30;99.90
5334;DHT22;2689;50.954;7.116;2023-04-24T01:46:57;12.30;99.90
5334;DHT22;2689;50.954;7.116;2023-04-24T01:49:23;12.20;99.90
5334;DHT22;2689;50.954;7.116;2023-04-24T01:51:50;12.00;99.90
5334;DHT22;2689;50.954;7.116;2023-04-24T01:54:17;12.10;99.90
5334;DHT22;2689;50.954;7.116;2023-04-24T01:56:46;12.10;99.90
5334;DHT22;2689;50.954;7.116;2023-04-24T01:59:13;12.00;99.90
5334;DHT22;2689;50.954;7.116;2023-04-24T02:01:42;12.00;99.90
5334;DHT22;2689;50.954;7.116;2023-04-24T02:04:08;12.40;99.90
5334;DHT22;2689;50.954;7.116;2023-04-24T02:06:35;11.70;99.90
5334;DHT22;2689;50.954;7.116;2023-04-24T02:09:03;11.50;99.90
5334;DHT22;2689;50.954;7.116;2023-04-24T02:11:30;11.70;99.90
5334;DHT22;2689;50.954;7.116;2023-04-24T02:13:58;11.30;99.90
5334;DHT22;2689;50.954;7.116;2023-04-24T02:16:26;13.00;99.90
5334;DHT22;2689;50.954;7.116;2023-04-24T02:18:55;11.70;99.50
5334;DHT22;2689;50.954;7.116;2023-04-24T02:21:21;11.50;99.70
5334;DHT22;2689;50.954;7.116;2023-04-24T02:23:48;12.80;99.90
5334;DHT22;2689;50.954;7.116;2023-04-24T02:26:15;13.00;99.90
5334;DHT22;2689;50.954;7.116;2023-04-24T02:28:43;10.90;99.90
5334;DHT22;2689;50.954;7.116;2023-04-24T02:31:11;11.10;99.90
5334;DHT22;2689;50.954;7.116;2023-04-24T02:33:38;11.10;99.90
5334;DHT22;2689;50.954;7.116;2023-04-24T02:36:05;11.70;99.90
5334;DHT22;2689;50.954;7.116;2023-04-24T02:38:32;11.00;99.90
5334;DHT22;2689;50.954;7.116;2023-04-24T02:40:59;10.60;99.90
5334;DHT22;2689;50.954;7.116;2023-04-24T02:43:26;10.60;99.90
5334;DHT22;2689;50.954;7.116;2023-04-24T02:45:53;10.70;99.90
5334;DHT22;2689;50.954;7.116;2023-04-24T02:48:21;10.60;99.90
5334;DHT22;2689;50.954;7.116;2023-04-24T02:50:48;10.40;99.90
5334;DHT22;2689;50.954;7.116;2023-04-24T02:53:14;10.50;99.90
5334;DHT22;2689;50.954;7.116;2023-04-24T02:55:41;11.70;99.90
5334;DHT22;2689;50.954;7.116;2023-04-24T02:58:08;10.30;99.90
5334;DHT22;2689;50.954;7.116;2023-04-24T03:00:36;10.40;99.90
5334;DHT22;2689;50.954;7.116;2023-04-24T03:03:02;11.10;99.90
5334;DHT22;2689;50.954;7.116;2023-04-24T03:05:31;11.30;99.90
5334;DHT22;2689;50.954;7.116;2023-04-24T03:07:57;11.90;99.90
5334;DHT22;2689;50.954;7.116;2023-04-24T03:10:24;11.80;99.90
5334;DHT22;2689;50.954;7.116;2023-04-24T03:12:51;10.60;99.90
5334;DHT22;2689;50.954;7.116;2023-04-24T03:15:18;10.30;99.90
5334;DHT22;2689;50.954;7.116;2023-04-24T03:17:45;11.30;99.90
5334;DHT22;2689;50.954;7.116;2023-04-24T03:20:11;10.60;99.90
5334;DHT22;2689;50.954;7.116;2023-04-24T03:22:40;10.70;99.90
5334;DHT22;2689;50.954;7.116;2023-04-24T03:25:07;12.00;99.90
5334;DHT22;2689;50.954;7.116;2023-04-24T03:27:34;10.90;99.90
5334;DHT22;2689;50.954;7.116;2023-04-24T03:30:01;10.60;99.90
5334;DHT22;2689;50.954;7.116;2023-04-24T03:32:28;10.70;99.90
5334;DHT22;2689;50.954;7.116;2023-04-24T03:34:55;10.40;99.90
5334;DHT22;2689;50.954;7.116;2023-04-24T03:37:22;10.40;99.90
5334;DHT22;2689;50.954;7.116;2023-04-24T03:39:50;11.90;99.90
5334;DHT22;2689;50.954;7.116;2023-04-24T03:42:17;11.20;99.90
5334;DHT22;2689;50.954;7.116;2023-04-24T03:44:44;10.50;99.90
5334;DHT22;2689;50.954;7.116;2023-04-24T03:47:11;11.90;99.90
5334;DHT22;2689;50.954;7.116;2023-04-24T03:49:37;10.50;99.90
5334;DHT22;2689;50.954;7.116;2023-04-24T03:52:04;10.50;99.90
5334;DHT22;2689;50.954;7.116;2023-04-24T03:54:31;11.70;99.90
5334;DHT22;2689;50.954;7.116;2023-04-24T03:56:59;11.70;99.90
5334;DHT22;2689;50.954;7.116;2023-04-24T03:59:26;10.30;99.90
5334;DHT22;2689;50.954;7.116;2023-04-24T04:01:53;11.30;99.90
5334;DHT22;2689;50.954;7.116;2023-04-24T04:04:21;10.50;99.90
5334;DHT22;2689;50.954;7.116;2023-04-24T04:06:48;10.40;99.90
5334;DHT22;2689;50.954;7.116;2023-04-24T04:09:15;10.40;99.90
5334;DHT22;2689;50.954;7.116;2023-04-24T04:11:41;10.50;99.90
5334;DHT22;2689;50.954;7.116;2023-04-24T04:14:09;10.40;99.90
5334;DHT22;2689;50.954;7.116;2023-04-24T04:16:36;10.50;99.90
5334;DHT22;2689;50.954;7.116;2023-04-24T04:19:03;10.40;99.90
5334;DHT22;2689;50.954;7.116;2023-04-24T04:21:30;10.40;99.90
5334;DHT22;2689;50.954;7.116;2023-04-24T04:23:57;10.40;99.90
5334;DHT22;2689;50.954;7.116;2023-04-24T04:26:24;10.40;99.90
5334;DHT22;2689;50.954;7.116;2023-04-24T04:28:52;10.40;99.90
5334;DHT22;2689;50.954;7.116;2023-04-24T04:31:21;10.40;99.90
5334;DHT22;2689;50.954;7.116;2023-04-24T04:33:48;10.20;99.90
5334;DHT22;2689;50.954;7.116;2023-04-24T04:36:15;10.30;99.90
5334;DHT22;2689;50.954;7.116;2023-04-24T04:38:42;10.30;99.90
5334;DHT22;2689;50.954;7.116;2023-04-24T04:41:10;10.30;99.90
5334;DHT22;2689;50.954;7.116;2023-04-24T04:43:37;10.30;99.90
5334;DHT22;2689;50.954;7.116;2023-04-24T04:46:06;10.30;99.90
5334;DHT22;2689;50.954;7.116;2023-04-24T04:48:35;11.80;99.90
5334;DHT22;2689;50.954;7.116;2023-04-24T04:51:03;10.30;99.90
5334;DHT22;2689;50.954;7.116;2023-04-24T04:53:30;10.50;99.90
5334;DHT22;2689;50.954;7.116;2023-04-24T04:55:59;10.80;99.90
5334;DHT22;2689;50.954;7.116;2023-04-24T04:58:26;10.30;99.90
5334;DHT22;2689;50.954;7.116;2023-04-24T05:00:52;10.40;99.90
5334;DHT22;2689;50.954;7.116;2023-04-24T05:03:19;10.20;99.90
5334;DHT22;2689;50.954;7.116;2023-04-24T05:05:47;10.20;99.90
5334;DHT22;2689;50.954;7.116;2023-04-24T05:08:14;11.40;99.90
5334;DHT22;2689;50.954;7.116;2023-04-24T05:10:41;10.20;99.90
5334;DHT22;2689;50.954;7.116;2023-04-24T05:13:15;10.20;99.90
5334;DHT22;2689;50.954;7.116;2023-04-24T05:15:42;10.30;99.90
5334;DHT22;2689;50.954;7.116;2023-04-24T05:18:09;11.10;99.90
5334;DHT22;2689;50.954;7.116;2023-04-24T05:20:36;10.30;99.90
5334;DHT22;2689;50.954;7.116;2023-04-24T05:23:04;10.50;99.90
5334;DHT22;2689;50.954;7.116;2023-04-24T05:25:31;10.20;99.90
5334;DHT22;2689;50.954;7.116;2023-04-24T05:28:00;10.00;99.90
5334;DHT22;2689;50.954;7.116;2023-04-24T05:30:27;10.20;99.90
5334;DHT22;2689;50.954;7.116;2023-04-24T05:32:54;10.30;99.90
5334;DHT22;2689;50.954;7.116;2023-04-24T05:35:21;10.30;99.90
5334;DHT22;2689;50.954;7.116;2023-04-24T05:37:47;10.30;99.90
5334;DHT22;2689;50.954;7.116;2023-04-24T05:40:16;10.30;99.90
5334;DHT22;2689;50.954;7.116;2023-04-24T05:42:42;10.20;99.90
5334;DHT22;2689;50.954;7.116;2023-04-24T05:45:09;10.30;99.90
5334;DHT22;2689;50.954;7.116;2023-04-24T05:47:41;10.30;99.90
5334;DHT22;2689;50.954;7.116;2023-04-24T05:50:09;10.30;99.90
5334;DHT22;2689;50.954;7.116;2023-04-24T05:52:36;10.40;99.90
5334;DHT22;2689;50.954;7.116;2023-04-24T05:55:03;10.30;99.90
5334;DHT22;2689;50.954;7.116;2023-04-24T05:57:32;10.30;99.90
5334;DHT22;2689;50.954;7.116;2023-04-24T05:59:58;10.80;99.90
5334;DHT22;2689;50.954;7.116;2023-04-24T06:02:25;10.30;99.90
5334;DHT22;2689;50.954;7.116;2023-04-24T06:04:53;10.10;99.90
5334;DHT22;2689;50.954;7.116;2023-04-24T06:07:20;10.00;99.90
5334;DHT22;2689;50.954;7.116;2023-04-24T06:09:47;10.10;99.90
5334;DHT22;2689;50.954;7.116;2023-04-24T06:12:14;11.00;99.90
5334;DHT22;2689;50.954;7.116;2023-04-24T06:14:42;9.90;99.90
5334;DHT22;2689;50.954;7.116;2023-04-24T06:17:09;9.90;99.90
5334;DHT22;2689;50.954;7.116;2023-04-24T06:19:38;10.00;99.90
5334;DHT22;2689;50.954;7.116;2023-04-24T06:22:05;10.80;99.90
5334;DHT22;2689;50.954;7.116;2023-04-24T06:24:34;9.80;99.90
5334;DHT22;2689;50.954;7.116;2023-04-24T06:27:01;8.80;99.90
5334;DHT22;2689;50.954;7.116;2023-04-24T06:29:28;9.90;99.90
5334;DHT22;2689;50.954;7.116;2023-04-24T06:31:56;10.00;99.90
5334;DHT22;2689;50.954;7.116;2023-04-24T06:34:23;10.20;99.90
5334;DHT22;2689;50.954;7.116;2023-04-24T06:36:50;10.00;99.90
5334;DHT22;2689;50.954;7.116;2023-04-24T06:39:18;9.90;99.90
5334;DHT22;2689;50.954;7.116;2023-04-24T06:41:47;9.90;99.90
5334;DHT22;2689;50.954;7.116;2023-04-24T06:44:14;9.90;99.90
5334;DHT22;2689;50.954;7.116;2023-04-24T06:46:41;9.20;99.90
5334;DHT22;2689;50.954;7.116;2023-04-24T06:49:09;9.70;99.90
5334;DHT22;2689;50.954;7.116;2023-04-24T06:51:36;9.80;99.90
5334;DHT22;2689;50.954;7.116;2023-04-24T06:54:03;9.60;99.90
5334;DHT22;2689;50.954;7.116;2023-04-24T06:56:30;9.40;99.90
5334;DHT22;2689;50.954;7.116;2023-04-24T06:58:57;10.40;99.90
5334;DHT22;2689;50.954;7.116;2023-04-24T07:01:24;9.20;99.90
5334;DHT22;2689;50.954;7.116;2023-04-24T07:03:51;9.20;99.90
5334;DHT22;2689;50.954;7.116;2023-04-24T07:06:19;9.10;99.90
5334;DHT22;2689;50.954;7.116;2023-04-24T07:08:48;9.10;99.90
5334;DHT22;2689;50.954;7.116;2023-04-24T07:11:15;9.00;99.90
5334;DHT22;2689;50.954;7.116;2023-04-24T07:13:42;9.30;99.90
5334;DHT22;2689;50.954;7.116;2023-04-24T07:16:09;9.10;99.90
5334;DHT22;2689;50.954;7.116;2023-04-24T07:18:36;9.50;99.90
5334;DHT22;2689;50.954;7.116;2023-04-24T07:21:03;9.00;99.90
5334;DHT22;2689;50.954;7.116;2023-04-24T07:23:32;10.00;99.90
5334;DHT22;2689;50.954;7.116;2023-04-24T07:25:58;9.00;99.90
5334;DHT22;2689;50.954;7.116;2023-04-24T07:28:25;9.00;99.90
5334;DHT22;2689;50.954;7.116;2023-04-24T07:30:52;8.70;99.90
5334;DHT22;2689;50.954;7.116;2023-04-24T07:33:19;8.90;99.90
5334;DHT22;2689;50.954;7.116;2023-04-24T07:35:46;8.90;99.90
5334;DHT22;2689;50.954;7.116;2023-04-24T07:38:13;8.90;99.90
5334;DHT22;2689;50.954;7.116;2023-04-24T07:40:41;9.00;99.90
5334;DHT22;2689;50.954;7.116;2023-04-24T07:43:08;9.00;99.90
5334;DHT22;2689;50.954;7.116;2023-04-24T07:45:35;8.90;99.90
5334;DHT22;2689;50.954;7.116;2023-04-24T07:48:03;8.90;99.90
5334;DHT22;2689;50.954;7.116;2023-04-24T07:50:29;8.80;99.90
5334;DHT22;2689;50.954;7.116;2023-04-24T07:52:56;8.50;99.90
5334;DHT22;2689;50.954;7.116;2023-04-24T07:55:23;8.20;99.90
5334;DHT22;2689;50.954;7.116;2023-04-24T07:57:51;8.20;99.90
5334;DHT22;2689;50.954;7.116;2023-04-24T08:00:19;8.10;99.90
5334;DHT22;2689;50.954;7.116;2023-04-24T08:02:46;8.10;99.90
5334;DHT22;2689;50.954;7.116;2023-04-24T08:05:13;8.00;99.90
5334;DHT22;2689;50.954;7.116;2023-04-24T08:07:39;8.00;99.90
5334;DHT22;2689;50.954;7.116;2023-04-24T08:10:09;7.80;99.90
5334;DHT22;2689;50.954;7.116;2023-04-24T08:12:36;7.90;99.90
5334;DHT22;2689;50.954;7.116;2023-04-24T08:15:05;7.70;99.90
5334;DHT22;2689;50.954;7.116;2023-04-24T08:17:33;7.80;99.90
5334;DHT22;2689;50.954;7.116;2023-04-24T08:20:00;7.70;99.90
5334;DHT22;2689;50.954;7.116;2023-04-24T08:22:28;7.60;99.90
5334;DHT22;2689;50.954;7.116;2023-04-24T08:24:55;8.80;99.90
5334;DHT22;2689;50.954;7.116;2023-04-24T08:27:22;7.60;99.90
5334;DHT22;2689;50.954;7.116;2023-04-24T08:29:49;7.60;99.90
5334;DHT22;2689;50.954;7.116;2023-04-24T08:32:17;7.60;99.90
5334;DHT22;2689;50.954;7.116;2023-04-24T08:34:44;7.30;99.90
5334;DHT22;2689;50.954;7.116;2023-04-24T08:37:11;7.50;99.90
5334;DHT22;2689;50.954;7.116;2023-04-24T08:39:38;7.00;99.90
5334;DHT22;2689;50.954;7.116;2023-04-24T08:42:05;7.30;99.90
5334;DHT22;2689;50.954;7.116;2023-04-24T08:44:34;7.10;99.90
5334;DHT22;2689;50.954;7.116;2023-04-24T08:47:02;7.10;99.90
5334;DHT22;2689;50.954;7.116;2023-04-24T08:49:30;7.00;99.90
5334;DHT22;2689;50.954;7.116;2023-04-24T08:51:57;7.20;99.90
5334;DHT22;2689;50.954;7.116;2023-04-24T08:54:25;7.10;99.90
5334;DHT22;2689;50.954;7.116;2023-04-24T08:57:00;8.00;99.90
5334;DHT22;2689;50.954;7.116;2023-04-24T08:59:29;7.10;99.90
5334;DHT22;2689;50.954;7.116;2023-04-24T09:01:57;8.70;99.90
5334;DHT22;2689;50.954;7.116;2023-04-24T09:04:25;7.10;99.90
5334;DHT22;2689;50.954;7.116;2023-04-24T09:06:56;7.30;99.90
5334;DHT22;2689;50.954;7.116;2023-04-24T09:09:23;7.30;99.90
5334;DHT22;2689;50.954;7.116;2023-04-24T09:11:51;7.80;99.90
5334;DHT22;2689;50.954;7.116;2023-04-24T09:14:21;7.30;99.90
5334;DHT22;2689;50.954;7.116;2023-04-24T09:16:51;7.20;99.90
5334;DHT22;2689;50.954;7.116;2023-04-24T09:19:17;7.30;99.90
5334;DHT22;2689;50.954;7.116;2023-04-24T09:21:46;7.30;99.90
5334;DHT22;2689;50.954;7.116;2023-04-24T09:24:21;7.30;99.90
5334;DHT22;2689;50.954;7.116;2023-04-24T09:26:49;7.90;99.90
5334;DHT22;2689;50.954;7.116;2023-04-24T09:29:22;7.40;99.90
5334;DHT22;2689;50.954;7.116;2023-04-24T09:31:49;7.90;99.90
5334;DHT22;2689;50.954;7.116;2023-04-24T09:34:24;7.50;99.90
5334;DHT22;2689;50.954;7.116;2023-04-24T09:36:52;7.50;99.90
5334;DHT22;2689;50.954;7.116;2023-04-24T09:39:21;7.60;99.90
5334;DHT22;2689;50.954;7.116;2023-04-24T09:41:49;7.50;99.90
5334;DHT22;2689;50.954;7.116;2023-04-24T09:44:17;7.60;99.90
5334;DHT22;2689;50.954;7.116;2023-04-24T09:46:49;7.70;99.90
5334;DHT22;2689;50.954;7.116;2023-04-24T09:49:21;7.70;99.90
5334;DHT22;2689;50.954;7.116;2023-04-24T09:51:48;7.60;99.90
5334;DHT22;2689;50.954;7.116;2023-04-24T09:54:16;7.90;99.90
5334;DHT22;2689;50.954;7.116;2023-04-24T09:56:45;8.10;99.90
5334;DHT22;2689;50.954;7.116;2023-04-24T09:59:13;8.00;99.90
5334;DHT22;2689;50.954;7.116;2023-04-24T10:01:40;8.50;99.90
5334;DHT22;2689;50.954;7.116;2023-04-24T10:04:19;8.10;99.90
5334;DHT22;2689;50.954;7.116;2023-04-24T10:06:47;8.10;99.90
5334;DHT22;2689;50.954;7.116;2023-04-24T10:09:26;8.20;99.90
5334;DHT22;2689;50.954;7.116;2023-04-24T10:11:54;8.20;99.90
5334;DHT22;2689;50.954;7.116;2023-04-24T10:14:24;8.30;99.90
5334;DHT22;2689;50.954;7.116;2023-04-24T10:16:53;8.40;99.90
5334;DHT22;2689;50.954;7.116;2023-04-24T10:19:25;8.50;99.90
5334;DHT22;2689;50.954;7.116;2023-04-24T10:21:52;8.60;99.90
5334;DHT22;2689;50.954;7.116;2023-04-24T10:24:21;8.50;99.90
5334;DHT22;2689;50.954;7.116;2023-04-24T10:26:49;8.80;99.90
5334;DHT22;2689;50.954;7.116;2023-04-24T10:29:18;8.90;99.90
5334;DHT22;2689;50.954;7.116;2023-04-24T10:31:46;8.90;99.90
5334;DHT22;2689;50.954;7.116;2023-04-24T10:34:15;8.80;99.90
5334;DHT22;2689;50.954;7.116;2023-04-24T10:36:47;9.20;99.90
5334;DHT22;2689;50.954;7.116;2023-04-24T10:39:16;8.90;99.90
5334;DHT22;2689;50.954;7.116;2023-04-24T10:41:44;9.10;99.90
5334;DHT22;2689;50.954;7.116;2023-04-24T10:44:13;9.30;99.90
5334;DHT22;2689;50.954;7.116;2023-04-24T10:46:45;9.60;99.90
5334;DHT22;2689;50.954;7.116;2023-04-24T10:49:13;9.70;99.90
5334;DHT22;2689;50.954;7.116;2023-04-24T10:51:47;9.50;99.90
5334;DHT22;2689;50.954;7.116;2023-04-24T10:54:25;9.60;99.90
5334;DHT22;2689;50.954;7.116;2023-04-24T10:56:53;9.30;99.90
5334;DHT22;2689;50.954;7.116;2023-04-24T10:59:24;9.30;99.90
5334;DHT22;2689;50.954;7.116;2023-04-24T11:01:54;9.20;99.90
5334;DHT22;2689;50.954;7.116;2023-04-24T11:04:31;9.20;99.90
5334;DHT22;2689;50.954;7.116;2023-04-24T11:06:58;9.10;99.90
5334;DHT22;2689;50.954;7.116;2023-04-24T11:09:27;9.40;99.90
5334;DHT22;2689;50.954;7.116;2023-04-24T11:12:04;9.00;99.90
5334;DHT22;2689;50.954;7.116;2023-04-24T11:14:59;9.10;99.90
5334;DHT22;2689;50.954;7.116;2023-04-24T11:17:32;9.10;99.90
5334;DHT22;2689;50.954;7.116;2023-04-24T11:20:02;9.00;99.90
5334;DHT22;2689;50.954;7.116;2023-04-24T11:22:33;9.00;99.90
5334;DHT22;2689;50.954;7.116;2023-04-24T11:25:01;8.90;99.90
5334;DHT22;2689;50.954;7.116;2023-04-24T11:27:30;8.80;99.90
5334;DHT22;2689;50.954;7.116;2023-04-24T11:30:02;8.60;99.90
5334;DHT22;2689;50.954;7.116;2023-04-24T11:32:34;8.90;99.90
5334;DHT22;2689;50.954;7.116;2023-04-24T11:35:04;8.50;99.90
5334;DHT22;2689;50.954;7.116;2023-04-24T11:37:35;8.50;99.90
5334;DHT22;2689;50.954;7.116;2023-04-24T11:40:02;8.40;99.90
5334;DHT22;2689;50.954;7.116;2023-04-24T11:42:34;8.60;99.90
5334;DHT22;2689;50.954;7.116;2023-04-24T11:45:01;8.70;99.90
5334;DHT22;2689;50.954;7.116;2023-04-24T11:47:30;8.70;99.90
5334;DHT22;2689;50.954;7.116;2023-04-24T11:49:59;8.80;99.90
5334;DHT22;2689;50.954;7.116;2023-04-24T11:52:26;8.90;99.90
5334;DHT22;2689;50.954;7.116;2023-04-24T11:54:53;8.90;99.90
5334;DHT22;2689;50.954;7.116;2023-04-24T11:57:21;9.00;99.90
5334;DHT22;2689;50.954;7.116;2023-04-24T11:59:48;8.90;99.90
5334;DHT22;2689;50.954;7.116;2023-04-24T12:02:22;9.50;99.90
5334;DHT22;2689;50.954;7.116;2023-04-24T12:04:50;9.20;99.90
5334;DHT22;2689;50.954;7.116;2023-04-24T12:07:17;9.10;99.90
5334;DHT22;2689;50.954;7.116;2023-04-24T12:09:45;9.10;99.90
5334;DHT22;2689;50.954;7.116;2023-04-24T12:12:13;9.10;99.90
5334;DHT22;2689;50.954;7.116;2023-04-24T12:14:44;9.10;99.90
5334;DHT22;2689;50.954;7.116;2023-04-24T12:17:11;9.20;99.90
5334;DHT22;2689;50.954;7.116;2023-04-24T12:19:45;9.40;99.90
5334;DHT22;2689;50.954;7.116;2023-04-24T12:22:14;9.70;99.90
5334;DHT22;2689;50.954;7.116;2023-04-24T12:25:00;9.90;99.90
5334;DHT22;2689;50.954;7.116;2023-04-24T12:27:31;10.00;99.90
5334;DHT22;2689;50.954;7.116;2023-04-24T12:29:59;10.00;99.90
5334;DHT22;2689;50.954;7.116;2023-04-24T12:32:26;10.90;99.90
5334;DHT22;2689;50.954;7.116;2023-04-24T12:34:53;9.80;99.90
5334;DHT22;2689;50.954;7.116;2023-04-24T12:37:23;9.90;99.90
5334;DHT22;2689;50.954;7.116;2023-04-24T12:40:00;11.60;99.90
5334;DHT22;2689;50.954;7.116;2023-04-24T12:42:28;10.40;99.90
5334;DHT22;2689;50.954;7.116;2023-04-24T12:44:57;10.30;99.90
5334;DHT22;2689;50.954;7.116;2023-04-24T12:47:26;10.20;99.90
5334;DHT22;2689;50.954;7.116;2023-04-24T12:49:53;10.20;99.90
5334;DHT22;2689;50.954;7.116;2023-04-24T12:52:22;10.60;99.90
5334;DHT22;2689;50.954;7.116;2023-04-24T12:54:50;10.50;99.90
5334;DHT22;2689;50.954;7.116;2023-04-24T12:57:18;10.50;99.90
5334;DHT22;2689;50.954;7.116;2023-04-24T12:59:45;10.40;99.90
5334;DHT22;2689;50.954;7.116;2023-04-24T13:02:12;10.10;99.90
5334;DHT22;2689;50.954;7.116;2023-04-24T13:04:40;10.20;99.90
5334;DHT22;2689;50.954;7.116;2023-04-24T13:07:07;10.00;99.90
5334;DHT22;2689;50.954;7.116;2023-04-24T13:09:35;9.90;99.90
5334;DHT22;2689;50.954;7.116;2023-04-24T13:12:02;9.80;99.90
5334;DHT22;2689;50.954;7.116;2023-04-24T13:14:31;9.80;99.90
5334;DHT22;2689;50.954;7.116;2023-04-24T13:16:58;11.30;99.90
5334;DHT22;2689;50.954;7.116;2023-04-24T13:19:25;9.90;99.90
5334;DHT22;2689;50.954;7.116;2023-04-24T13:21:53;10.00;99.90
5334;DHT22;2689;50.954;7.116;2023-04-24T13:24:20;10.90;99.90
5334;DHT22;2689;50.954;7.116;2023-04-24T13:26:52;10.20;99.90
5334;DHT22;2689;50.954;7.116;2023-04-24T13:29:19;10.70;99.90
5334;DHT22;2689;50.954;7.116;2023-04-24T13:31:47;11.60;99.90
5334;DHT22;2689;50.954;7.116;2023-04-24T13:34:14;11.50;99.90
5334;DHT22;2689;50.954;7.116;2023-04-24T13:36:41;10.40;99.90
5334;DHT22;2689;50.954;7.116;2023-04-24T13:39:08;11.90;99.90
5334;DHT22;2689;50.954;7.116;2023-04-24T13:41:36;10.90;99.90
5334;DHT22;2689;50.954;7.116;2023-04-24T13:44:05;11.80;99.90
5334;DHT22;2689;50.954;7.116;2023-04-24T13:46:32;11.00;99.90
5334;DHT22;2689;50.954;7.116;2023-04-24T13:49:01;10.00;99.90
5334;DHT22;2689;50.954;7.116;2023-04-24T13:51:29;11.50;99.90
5334;DHT22;2689;50.954;7.116;2023-04-24T13:53:56;12.20;99.90
5334;DHT22;2689;50.954;7.116;2023-04-24T13:56:23;10.70;99.90
5334;DHT22;2689;50.954;7.116;2023-04-24T13:58:50;11.30;99.90
5334;DHT22;2689;50.954;7.116;2023-04-24T14:01:18;11.30;99.90
5334;DHT22;2689;50.954;7.116;2023-04-24T14:03:46;11.70;99.90
5334;DHT22;2689;50.954;7.116;2023-04-24T14:06:13;11.10;99.90
5334;DHT22;2689;50.954;7.116;2023-04-24T14:08:40;10.00;99.90
5334;DHT22;2689;50.954;7.116;2023-04-24T14:11:06;9.80;99.90
5334;DHT22;2689;50.954;7.116;2023-04-24T14:13:36;10.50;99.90
5334;DHT22;2689;50.954;7.116;2023-04-24T14:16:04;10.70;99.90
5334;DHT22;2689;50.954;7.116;2023-04-24T14:18:35;9.80;99.90
5334;DHT22;2689;50.954;7.116;2023-04-24T14:21:02;9.50;99.90
5334;DHT22;2689;50.954;7.116;2023-04-24T14:23:29;10.00;99.90
5334;DHT22;2689;50.954;7.116;2023-04-24T14:25:56;10.00;99.90
5334;DHT22;2689;50.954;7.116;2023-04-24T14:28:23;11.70;99.90
5334;DHT22;2689;50.954;7.116;2023-04-24T14:30:51;10.10;99.90
5334;DHT22;2689;50.954;7.116;2023-04-24T14:33:18;10.20;99.90
5334;DHT22;2689;50.954;7.116;2023-04-24T14:35:46;11.20;99.90
5334;DHT22;2689;50.954;7.116;2023-04-24T14:38:13;10.40;99.90
5334;DHT22;2689;50.954;7.116;2023-04-24T14:40:40;11.00;99.90
5334;DHT22;2689;50.954;7.116;2023-04-24T14:43:07;10.40;99.90
5334;DHT22;2689;50.954;7.116;2023-04-24T14:45:34;10.70;99.90
5334;DHT22;2689;50.954;7.116;2023-04-24T14:48:01;11.80;99.90
5334;DHT22;2689;50.954;7.116;2023-04-24T14:50:28;12.50;99.90
5334;DHT22;2689;50.954;7.116;2023-04-24T14:52:57;11.20;99.90
5334;DHT22;2689;50.954;7.116;2023-04-24T14:55:24;11.40;99.90
5334;DHT22;2689;50.954;7.116;2023-04-24T14:57:51;11.50;99.90
5334;DHT22;2689;50.954;7.116;2023-04-24T15:00:19;13.60;99.90
5334;DHT22;2689;50.954;7.116;2023-04-24T15:02:48;12.20;99.90
5334;DHT22;2689;50.954;7.116;2023-04-24T15:05:15;12.30;99.90
5334;DHT22;2689;50.954;7.116;2023-04-24T15:07:42;12.30;99.90
5334;DHT22;2689;50.954;7.116;2023-04-24T15:10:11;12.30;99.90
5334;DHT22;2689;50.954;7.116;2023-04-24T15:12:39;12.80;99.90
5334;DHT22;2689;50.954;7.116;2023-04-24T15:15:08;12.40;99.90
5334;DHT22;2689;50.954;7.116;2023-04-24T15:17:37;12.60;99.90
5334;DHT22;2689;50.954;7.116;2023-04-24T15:20:05;12.80;99.90
5334;DHT22;2689;50.954;7.116;2023-04-24T15:22:33;12.80;99.90
5334;DHT22;2689;50.954;7.116;2023-04-24T15:25:00;12.90;99.90
5334;DHT22;2689;50.954;7.116;2023-04-24T15:27:38;13.80;99.90
5334;DHT22;2689;50.954;7.116;2023-04-24T15:30:06;12.80;99.90
5334;DHT22;2689;50.954;7.116;2023-04-24T15:32:33;12.80;99.90
5334;DHT22;2689;50.954;7.116;2023-04-24T15:35:01;12.90;99.90
5334;DHT22;2689;50.954;7.116;2023-04-24T15:37:36;13.00;99.90
5334;DHT22;2689;50.954;7.116;2023-04-24T15:40:04;13.00;99.90
5334;DHT22;2689;50.954;7.116;2023-04-24T15:42:34;13.10;99.90
5334;DHT22;2689;50.954;7.116;2023-04-24T15:45:01;13.00;99.90
5334;DHT22;2689;50.954;7.116;2023-04-24T15:47:28;13.10;98.30
5334;DHT22;2689;50.954;7.116;2023-04-24T15:50:10;13.10;97.30
5334;DHT22;2689;50.954;7.116;2023-04-24T15:52:38;13.00;96.90
5334;DHT22;2689;50.954;7.116;2023-04-24T15:55:11;13.10;96.90
5334;DHT22;2689;50.954;7.116;2023-04-24T15:57:39;13.90;98.30
5334;DHT22;2689;50.954;7.116;2023-04-24T16:00:07;13.30;96.40
5334;DHT22;2689;50.954;7.116;2023-04-24T16:02:35;13.40;94.90
5334;DHT22;2689;50.954;7.116;2023-04-24T16:05:02;13.40;94.90
5334;DHT22;2689;50.954;7.116;2023-04-24T16:07:30;13.40;94.40
5334;DHT22;2689;50.954;7.116;2023-04-24T16:09:57;13.40;93.70
5334;DHT22;2689;50.954;7.116;2023-04-24T16:12:23;13.60;93.00